Queen Elizabeth — ZCEF2 — position and weather

sailwx.info

Track history (hours):
 
Tides and Currents Weather Stations Pressure Air Temp Water Temp Dewpoint Dewpoint Depression Visibility Wind Speed Wind Dir Waves Ship Positions

Queen Elizabeth

Last reported at 2019-Feb-21 12:00 UTC. Time now 2019-Feb-21 15:36 UTC.
Position S 38°42' E 158°30'.

Length 294 m; draft 8 m.

Type: Ship. MMSI: 310625000.

Wind from 220 at 23 knots

Barometer 1018.6 mb
Air temperature 20.0 ° C
Dewpoint 13.0 ° C
Water temperature 22.0 ° C

Date/timePositionNaut miles runAvg speedWind from/ knotsBaromVisibWave heightAir tempDewpointWater temp
2019-Feb-21 12:00S 38°42' E 158°30'21619.7 220 / 231018.6 20.013.022.0
2019-Feb-21 01:00S 36°24' E 155°00'20617.3 200 / 201019.6 23.012.624.0
2019-Feb-20 13:03S 34°11' E 151°48'117.4
2019-Feb-20 13:00S 34°10' E 151°47'13910.3
2019-Feb-20 13:00S 34°00' E 151°36'510.8 120 / 271014.610.8 28.018.8
2019-Feb-20 12:30S 34°05' E 151°38'918.1
2019-Feb-20 12:01S 33°59' E 151°30'1019.0
2019-Feb-20 11:30S 33°51' E 151°23'510.6
2019-Feb-20 11:00S 33°50' E 151°17'4 7.8
2019-Feb-20 10:30S 33°51' E 151°13'0 0.7
2019-Feb-20 09:58S 33°52' E 151°13'0 0.0
2019-Feb-20 09:28S 33°52' E 151°13'0 0.0
2019-Feb-20 08:58S 33°52' E 151°13'0 0.0
2019-Feb-20 08:28S 33°52' E 151°13'0 0.0
2019-Feb-20 07:58S 33°52' E 151°13'0 0.0
2019-Feb-20 07:28S 33°52' E 151°13'0 0.0
2019-Feb-20 06:55S 33°52' E 151°13'0 0.0
2019-Feb-20 06:28S 33°52' E 151°13'0 0.0
2019-Feb-20 05:58S 33°52' E 151°13'0 0.0
2019-Feb-20 05:28S 33°52' E 151°13'0 0.0
2019-Feb-20 04:58S 33°52' E 151°13'0 0.0
2019-Feb-20 04:22S 33°52' E 151°13'0 0.0
2019-Feb-20 03:58S 33°52' E 151°13'0 0.0
2019-Feb-20 02:55S 33°52' E 151°13'0 0.0
2019-Feb-20 02:28S 33°52' E 151°13'0 0.0
2019-Feb-20 01:58S 33°52' E 151°13'0 0.0
2019-Feb-20 01:28S 33°52' E 151°13'0 0.0
2019-Feb-20 00:58S 33°52' E 151°13'0 0.0
2019-Feb-20 00:28S 33°52' E 151°13'0 0.0
2019-Feb-19 23:58S 33°52' E 151°13'0 0.0
2019-Feb-19 23:28S 33°52' E 151°13'0 0.0
2019-Feb-19 22:58S 33°52' E 151°13'0 0.0
2019-Feb-19 22:28S 33°52' E 151°13'0 0.0
2019-Feb-19 21:58S 33°52' E 151°13'0 0.0
2019-Feb-19 21:28S 33°52' E 151°13'0 0.0
2019-Feb-19 20:58S 33°52' E 151°13'0 0.0
2019-Feb-19 20:28S 33°52' E 151°13'0 0.0
2019-Feb-19 19:58S 33°52' E 151°13'0 0.0
2019-Feb-19 19:28S 33°52' E 151°13'0 0.0
2019-Feb-19 19:01S 33°52' E 151°13'2 3.2
2019-Feb-19 18:30S 33°51' E 151°15'5 9.9
2019-Feb-19 18:00S 33°51' E 151°20'612.8
2019-Feb-19 17:30S 33°56' E 151°25'714.7
2019-Feb-19 17:00S 34°03' E 151°24'815.1
2019-Feb-19 16:30S 34°11' E 151°23'713.8
2019-Feb-19 16:00S 34°18' E 151°22'41014.4
2019-Feb-18 11:34S 40°05' E 146°48'215.1
2019-Feb-18 11:24S 40°07' E 146°46'614.9
2019-Feb-18 11:00S 40°12' E 146°42'715.0
2019-Feb-18 10:31S 40°18' E 146°36'714.8
2019-Feb-18 10:01S 40°24' E 146°31'714.6
2019-Feb-18 09:31S 40°30' E 146°25'714.7
2019-Feb-18 09:01S 40°36' E 146°20'714.8
2019-Feb-18 08:31S 40°43' E 146°15'815.0
2019-Feb-18 08:01S 40°49' E 146°09'815.3
2019-Feb-18 07:31S 40°55' E 146°03'815.2
2019-Feb-18 07:01S 41°01' E 145°58'3 5.0
2019-Feb-18 06:26S 41°03' E 145°55'0 0.0
2019-Feb-18 04:50S 41°03' E 145°55'0 0.0
2019-Feb-18 01:43S 41°03' E 145°55'0 0.0
2019-Feb-18 01:25S 41°03' E 145°55'0 0.0
2019-Feb-18 00:56S 41°03' E 145°55'0 0.0
2019-Feb-18 00:26S 41°03' E 145°55'0 0.0
2019-Feb-17 23:56S 41°03' E 145°55'0 0.0
2019-Feb-17 23:26S 41°03' E 145°55'0 0.0
2019-Feb-17 22:56S 41°03' E 145°55'0 0.0
2019-Feb-17 22:26S 41°03' E 145°55'0 0.0
2019-Feb-17 21:56S 41°03' E 145°55'0 0.0
2019-Feb-17 21:25S 41°03' E 145°55'0 0.0
2019-Feb-17 20:56S 41°03' E 145°55'0 0.6
2019-Feb-17 20:30S 41°03' E 145°55'1 3.0
2019-Feb-17 20:00S 41°02' E 145°57'611.1
2019-Feb-17 19:31S 40°57' E 145°59'815.6
2019-Feb-17 19:00S 40°50' E 145°55'815.7
2019-Feb-17 18:31S 40°42' E 145°51'815.8
2019-Feb-17 18:01S 40°35' E 145°46'816.9
2019-Feb-17 17:30S 40°28' E 145°42'918.1
2019-Feb-17 17:00S 40°19' E 145°38'918.0
2019-Feb-17 16:30S 40°10' E 145°34'49 1.6
2019-Feb-16 09:06S 39°27' E 146°05'3414.5
2019-Feb-16 06:44S 39°50' E 146°38'4515.9
2019-Feb-16 03:54S 40°20' E 147°22'615.9
2019-Feb-16 03:30S 40°24' E 147°28'815.7
2019-Feb-16 03:00S 40°30' E 147°36'815.5
2019-Feb-16 02:30S 40°32' E 147°45'815.3
2019-Feb-16 02:00S 40°35' E 147°55'714.0
2019-Feb-16 01:30S 40°37' E 148°04'813.4
2019-Feb-16 00:56S 40°40' E 148°13'713.7
2019-Feb-16 00:27S 40°43' E 148°21'914.6
2019-Feb-15 23:50S 40°47' E 148°32'514.9
2019-Feb-15 23:30S 40°49' E 148°37'815.5
2019-Feb-15 23:00S 40°57' E 148°41'1214.9
2019-Feb-15 22:13S 41°08' E 148°44'315.6
2019-Feb-15 22:00S 41°11' E 148°44'13014.6
2019-Feb-15 13:05S 43°18' E 147°60'114.8
2019-Feb-15 13:00S 43°18' E 147°58'1414.5
2019-Feb-15 12:03S 43°18' E 147°39'114.4
2019-Feb-15 12:01S 43°17' E 147°38'1315.2
2019-Feb-15 11:10S 43°07' E 147°27'814.7
2019-Feb-15 10:37S 43°00' E 147°22'12 0.9
2019-Feb-14 20:56S 43°11' E 147°30'818.1
2019-Feb-14 20:30S 43°17' E 147°37'14819.3
2019-Feb-14 12:50S 40°57' E 148°41'822.4
2019-Feb-14 12:29S 40°49' E 148°37'1323.2
2019-Feb-14 11:56S 40°44' E 148°22'1124.8
2019-Feb-14 11:30S 40°39' E 148°09'1224.7
2019-Feb-14 11:01S 40°35' E 147°54'1223.4
2019-Feb-14 10:31S 40°31' E 147°40'1223.1
2019-Feb-14 10:01S 40°26' E 147°26'1122.9
2019-Feb-14 09:30S 40°22' E 147°12'1223.0
2019-Feb-14 09:01S 40°18' E 146°57'1123.0
2019-Feb-14 08:31S 40°14' E 146°43'1122.9
2019-Feb-14 08:01S 40°10' E 146°29'1123.0
2019-Feb-14 07:31S 40°06' E 146°15'  
Track history (hours):
 
Tides and Currents Weather Stations Pressure Air Temp Water Temp Dewpoint Dewpoint Depression Visibility Wind Speed Wind Dir Waves Ship Positions

Queen Elizabeth

Last reported at 2019-Feb-21 12:00 UTC. Time now 2019-Feb-21 15:36 UTC.
Position S 38°42' E 158°30'.

Length 294 m; draft 8 m.

Type: Ship. MMSI: 310625000.

Wind from 220 at 23 knots

Barometer 1018.6 mb
Air temperature 20.0 ° C
Dewpoint 13.0 ° C
Water temperature 22.0 ° C

Date/timePositionNaut miles runAvg speedWind from/ knotsBaromVisibWave heightAir tempDewpointWater temp
2019-Feb-21 12:00S 38°42' E 158°30'21619.7 220 / 231018.6 20.013.022.0
2019-Feb-21 01:00S 36°24' E 155°00'20617.3 200 / 201019.6 23.012.624.0
2019-Feb-20 13:03S 34°11' E 151°48'117.4
2019-Feb-20 13:00S 34°10' E 151°47'13910.3
2019-Feb-20 13:00S 34°00' E 151°36'510.8 120 / 271014.610.8 28.018.8
2019-Feb-20 12:30S 34°05' E 151°38'918.1
2019-Feb-20 12:01S 33°59' E 151°30'1019.0
2019-Feb-20 11:30S 33°51' E 151°23'510.6
2019-Feb-20 11:00S 33°50' E 151°17'4 7.8
2019-Feb-20 10:30S 33°51' E 151°13'0 0.7
2019-Feb-20 09:58S 33°52' E 151°13'0 0.0
2019-Feb-20 09:28S 33°52' E 151°13'0 0.0
2019-Feb-20 08:58S 33°52' E 151°13'0 0.0
2019-Feb-20 08:28S 33°52' E 151°13'0 0.0
2019-Feb-20 07:58S 33°52' E 151°13'0 0.0
2019-Feb-20 07:28S 33°52' E 151°13'0 0.0
2019-Feb-20 06:55S 33°52' E 151°13'0 0.0
2019-Feb-20 06:28S 33°52' E 151°13'0 0.0
2019-Feb-20 05:58S 33°52' E 151°13'0 0.0
2019-Feb-20 05:28S 33°52' E 151°13'0 0.0
2019-Feb-20 04:58S 33°52' E 151°13'0 0.0
2019-Feb-20 04:22S 33°52' E 151°13'0 0.0
2019-Feb-20 03:58S 33°52' E 151°13'0 0.0
2019-Feb-20 02:55S 33°52' E 151°13'0 0.0
2019-Feb-20 02:28S 33°52' E 151°13'0 0.0
2019-Feb-20 01:58S 33°52' E 151°13'0 0.0
2019-Feb-20 01:28S 33°52' E 151°13'0 0.0
2019-Feb-20 00:58S 33°52' E 151°13'0 0.0
2019-Feb-20 00:28S 33°52' E 151°13'0 0.0
2019-Feb-19 23:58S 33°52' E 151°13'0 0.0
2019-Feb-19 23:28S 33°52' E 151°13'0 0.0
2019-Feb-19 22:58S 33°52' E 151°13'0 0.0
2019-Feb-19 22:28S 33°52' E 151°13'0 0.0
2019-Feb-19 21:58S 33°52' E 151°13'0 0.0
2019-Feb-19 21:28S 33°52' E 151°13'0 0.0
2019-Feb-19 20:58S 33°52' E 151°13'0 0.0
2019-Feb-19 20:28S 33°52' E 151°13'0 0.0
2019-Feb-19 19:58S 33°52' E 151°13'0 0.0
2019-Feb-19 19:28S 33°52' E 151°13'0 0.0
2019-Feb-19 19:01S 33°52' E 151°13'2 3.2
2019-Feb-19 18:30S 33°51' E 151°15'5 9.9
2019-Feb-19 18:00S 33°51' E 151°20'612.8
2019-Feb-19 17:30S 33°56' E 151°25'714.7
2019-Feb-19 17:00S 34°03' E 151°24'815.1
2019-Feb-19 16:30S 34°11' E 151°23'713.8
2019-Feb-19 16:00S 34°18' E 151°22'41014.4
2019-Feb-18 11:34S 40°05' E 146°48'215.1
2019-Feb-18 11:24S 40°07' E 146°46'614.9
2019-Feb-18 11:00S 40°12' E 146°42'715.0
2019-Feb-18 10:31S 40°18' E 146°36'714.8
2019-Feb-18 10:01S 40°24' E 146°31'714.6
2019-Feb-18 09:31S 40°30' E 146°25'714.7
2019-Feb-18 09:01S 40°36' E 146°20'714.8
2019-Feb-18 08:31S 40°43' E 146°15'815.0
2019-Feb-18 08:01S 40°49' E 146°09'815.3
2019-Feb-18 07:31S 40°55' E 146°03'815.2
2019-Feb-18 07:01S 41°01' E 145°58'3 5.0
2019-Feb-18 06:26S 41°03' E 145°55'0 0.0
2019-Feb-18 04:50S 41°03' E 145°55'0 0.0
2019-Feb-18 01:43S 41°03' E 145°55'0 0.0
2019-Feb-18 01:25S 41°03' E 145°55'0 0.0
2019-Feb-18 00:56S 41°03' E 145°55'0 0.0
2019-Feb-18 00:26S 41°03' E 145°55'0 0.0
2019-Feb-17 23:56S 41°03' E 145°55'0 0.0
2019-Feb-17 23:26S 41°03' E 145°55'0 0.0
2019-Feb-17 22:56S 41°03' E 145°55'0 0.0
2019-Feb-17 22:26S 41°03' E 145°55'0 0.0
2019-Feb-17 21:56S 41°03' E 145°55'0 0.0
2019-Feb-17 21:25S 41°03' E 145°55'0 0.0
2019-Feb-17 20:56S 41°03' E 145°55'0 0.6
2019-Feb-17 20:30S 41°03' E 145°55'1 3.0
2019-Feb-17 20:00S 41°02' E 145°57'611.1
2019-Feb-17 19:31S 40°57' E 145°59'815.6
2019-Feb-17 19:00S 40°50' E 145°55'815.7
2019-Feb-17 18:31S 40°42' E 145°51'815.8
2019-Feb-17 18:01S 40°35' E 145°46'816.9
2019-Feb-17 17:30S 40°28' E 145°42'918.1
2019-Feb-17 17:00S 40°19' E 145°38'918.0
2019-Feb-17 16:30S 40°10' E 145°34'49 1.6
2019-Feb-16 09:06S 39°27' E 146°05'3414.5
2019-Feb-16 06:44S 39°50' E 146°38'4515.9
2019-Feb-16 03:54S 40°20' E 147°22'615.9
2019-Feb-16 03:30S 40°24' E 147°28'815.7
2019-Feb-16 03:00S 40°30' E 147°36'815.5
2019-Feb-16 02:30S 40°32' E 147°45'815.3
2019-Feb-16 02:00S 40°35' E 147°55'714.0
2019-Feb-16 01:30S 40°37' E 148°04'813.4
2019-Feb-16 00:56S 40°40' E 148°13'713.7
2019-Feb-16 00:27S 40°43' E 148°21'914.6
2019-Feb-15 23:50S 40°47' E 148°32'514.9
2019-Feb-15 23:30S 40°49' E 148°37'815.5
2019-Feb-15 23:00S 40°57' E 148°41'1214.9
2019-Feb-15 22:13S 41°08' E 148°44'315.6
2019-Feb-15 22:00S 41°11' E 148°44'13014.6
2019-Feb-15 13:05S 43°18' E 147°60'114.8
2019-Feb-15 13:00S 43°18' E 147°58'1414.5
2019-Feb-15 12:03S 43°18' E 147°39'114.4
2019-Feb-15 12:01S 43°17' E 147°38'1315.2
2019-Feb-15 11:10S 43°07' E 147°27'814.7
2019-Feb-15 10:37S 43°00' E 147°22'12 0.9
2019-Feb-14 20:56S 43°11' E 147°30'818.1
2019-Feb-14 20:30S 43°17' E 147°37'14819.3
2019-Feb-14 12:50S 40°57' E 148°41'822.4
2019-Feb-14 12:29S 40°49' E 148°37'1323.2
2019-Feb-14 11:56S 40°44' E 148°22'1124.8
2019-Feb-14 11:30S 40°39' E 148°09'1224.7
2019-Feb-14 11:01S 40°35' E 147°54'1223.4
2019-Feb-14 10:31S 40°31' E 147°40'1223.1
2019-Feb-14 10:01S 40°26' E 147°26'1122.9
2019-Feb-14 09:30S 40°22' E 147°12'1223.0
2019-Feb-14 09:01S 40°18' E 146°57'1123.0
2019-Feb-14 08:31S 40°14' E 146°43'1122.9
2019-Feb-14 08:01S 40°10' E 146°29'1123.0
2019-Feb-14 07:31S 40°06' E 146°15'  

Dump ship's entire track history